sensor_id;sensor_type;location;lat;lon;timestamp;pressure;altitude;pressure_sealevel;temperature;humidity
69630;BME280;56857;52.212;5.496;2023-03-03T00:00:45;102607.72;;;1.82;100.00
69630;BME280;56857;52.212;5.496;2023-03-03T00:03:14;102608.78;;;1.78;100.00
69630;BME280;56857;52.212;5.496;2023-03-03T00:05:40;102604.63;;;1.74;100.00
69630;BME280;56857;52.212;5.496;2023-03-03T00:08:07;102608.22;;;1.71;100.00
69630;BME280;56857;52.212;5.496;2023-03-03T00:10:33;102611.81;;;1.69;100.00
69630;BME280;56857;52.212;5.496;2023-03-03T00:12:59;102603.13;;;1.68;100.00
69630;BME280;56857;52.212;5.496;2023-03-03T00:15:26;102609.06;;;1.72;100.00
69630;BME280;56857;52.212;5.496;2023-03-03T00:17:52;102610.13;;;1.68;100.00
69630;BME280;56857;52.212;5.496;2023-03-03T00:20:37;102612.88;;;1.65;100.00
69630;BME280;56857;52.212;5.496;2023-03-03T00:23:16;102609.59;;;1.59;100.00
69630;BME280;56857;52.212;5.496;2023-03-03T00:25:44;102617.31;;;1.62;100.00
69630;BME280;56857;52.212;5.496;2023-03-03T00:30:45;102620.53;;;1.49;100.00
69630;BME280;56857;52.212;5.496;2023-03-03T00:33:31;102628.66;;;1.43;100.00
69630;BME280;56857;52.212;5.496;2023-03-03T00:38:43;102631.69;;;1.32;100.00
69630;BME280;56857;52.212;5.496;2023-03-03T00:41:22;102625.88;;;1.25;100.00
69630;BME280;56857;52.212;5.496;2023-03-03T00:43:48;102627.66;;;1.25;100.00
69630;BME280;56857;52.212;5.496;2023-03-03T00:46:14;102632.88;;;1.25;100.00
69630;BME280;56857;52.212;5.496;2023-03-03T00:48:43;102624.19;;;1.24;100.00
69630;BME280;56857;52.212;5.496;2023-03-03T00:53:49;102631.81;;;1.29;100.00
69630;BME280;56857;52.212;5.496;2023-03-03T00:56:14;102641.25;;;1.33;100.00
69630;BME280;56857;52.212;5.496;2023-03-03T00:58:40;102637.13;;;1.27;100.00
69630;BME280;56857;52.212;5.496;2023-03-03T01:01:05;102635.25;;;1.31;100.00
69630;BME280;56857;52.212;5.496;2023-03-03T01:03:31;102633.47;;;1.31;100.00
69630;BME280;56857;52.212;5.496;2023-03-03T01:05:56;102638.66;;;1.33;100.00
69630;BME280;56857;52.212;5.496;2023-03-03T01:08:24;102645.56;;;1.34;100.00
69630;BME280;56857;52.212;5.496;2023-03-03T01:10:56;102640.47;;;1.31;100.00
69630;BME280;56857;52.212;5.496;2023-03-03T01:13:29;102644.84;;;1.30;100.00
69630;BME280;56857;52.212;5.496;2023-03-03T01:15:55;102633.81;;;1.24;100.00
69630;BME280;56857;52.212;5.496;2023-03-03T01:18:20;102635.63;;;1.22;100.00
69630;BME280;56857;52.212;5.496;2023-03-03T01:20:46;102641.56;;;1.25;100.00
69630;BME280;56857;52.212;5.496;2023-03-03T01:23:11;102639.75;;;1.27;100.00
69630;BME280;56857;52.212;5.496;2023-03-03T01:25:38;102640.66;;;1.26;100.00
69630;BME280;56857;52.212;5.496;2023-03-03T01:28:04;102638.19;;;1.23;100.00
69630;BME280;56857;52.212;5.496;2023-03-03T01:30:29;102632.97;;;1.23;100.00
69630;BME280;56857;52.212;5.496;2023-03-03T01:32:55;102634.69;;;1.23;100.00
69630;BME280;56857;52.212;5.496;2023-03-03T01:35:21;102639.16;;;1.21;100.00
69630;BME280;56857;52.212;5.496;2023-03-03T01:37:46;102640.00;;;1.21;100.00
69630;BME280;56857;52.212;5.496;2023-03-03T01:40:19;102635.63;;;1.22;100.00
69630;BME280;56857;52.212;5.496;2023-03-03T01:42:44;102636.34;;;1.25;100.00
69630;BME280;56857;52.212;5.496;2023-03-03T01:45:11;102634.38;;;1.30;100.00
69630;BME280;56857;52.212;5.496;2023-03-03T01:47:37;102624.69;;;1.32;100.00
69630;BME280;56857;52.212;5.496;2023-03-03T01:50:03;102631.44;;;1.38;100.00
69630;BME280;56857;52.212;5.496;2023-03-03T01:52:38;102627.13;;;1.37;100.00
69630;BME280;56857;52.212;5.496;2023-03-03T01:55:12;102625.25;;;1.41;100.00
69630;BME280;56857;52.212;5.496;2023-03-03T01:57:43;102629.75;;;1.37;100.00
69630;BME280;56857;52.212;5.496;2023-03-03T02:00:11;102639.09;;;1.43;100.00
69630;BME280;56857;52.212;5.496;2023-03-03T02:02:37;102638.25;;;1.42;100.00
69630;BME280;56857;52.212;5.496;2023-03-03T02:05:03;102635.63;;;1.42;100.00
69630;BME280;56857;52.212;5.496;2023-03-03T02:07:30;102632.38;;;1.37;100.00
69630;BME280;56857;52.212;5.496;2023-03-03T02:10:10;102640.34;;;1.34;100.00
69630;BME280;56857;52.212;5.496;2023-03-03T02:12:42;102635.78;;;1.39;100.00
69630;BME280;56857;52.212;5.496;2023-03-03T02:15:16;102632.28;;;1.38;100.00
69630;BME280;56857;52.212;5.496;2023-03-03T02:17:42;102642.81;;;1.37;100.00
69630;BME280;56857;52.212;5.496;2023-03-03T02:20:26;102640.38;;;1.32;100.00
69630;BME280;56857;52.212;5.496;2023-03-03T02:23:12;102637.00;;;1.30;100.00
69630;BME280;56857;52.212;5.496;2023-03-03T02:28:13;102627.66;;;1.25;100.00
69630;BME280;56857;52.212;5.496;2023-03-03T02:30:38;102634.66;;;1.24;100.00
69630;BME280;56857;52.212;5.496;2023-03-03T02:33:04;102638.25;;;1.22;100.00
69630;BME280;56857;52.212;5.496;2023-03-03T02:35:34;102641.81;;;1.19;100.00
69630;BME280;56857;52.212;5.496;2023-03-03T02:38:27;102635.63;;;1.22;100.00
69630;BME280;56857;52.212;5.496;2023-03-03T02:46:20;102634.31;;;1.11;100.00
69630;BME280;56857;52.212;5.496;2023-03-03T02:48:45;102630.19;;;1.06;100.00
69630;BME280;56857;52.212;5.496;2023-03-03T02:51:12;102632.94;;;1.03;100.00
69630;BME280;56857;52.212;5.496;2023-03-03T02:53:37;102633.13;;;0.98;100.00
69630;BME280;56857;52.212;5.496;2023-03-03T02:56:03;102637.59;;;0.95;100.00
69630;BME280;56857;52.212;5.496;2023-03-03T02:58:29;102641.09;;;0.95;100.00
69630;BME280;56857;52.212;5.496;2023-03-03T03:00:55;102636.75;;;0.94;100.00
69630;BME280;56857;52.212;5.496;2023-03-03T03:03:21;102642.66;;;0.99;100.00
69630;BME280;56857;52.212;5.496;2023-03-03T03:05:46;102641.84;;;0.97;100.00
69630;BME280;56857;52.212;5.496;2023-03-03T03:08:12;102647.22;;;0.94;100.00
69630;BME280;56857;52.212;5.496;2023-03-03T03:10:37;102640.38;;;0.91;100.00
69630;BME280;56857;52.212;5.496;2023-03-03T03:13:02;102640.38;;;0.91;100.00
69630;BME280;56857;52.212;5.496;2023-03-03T03:15:28;102634.22;;;0.92;100.00
69630;BME280;56857;52.212;5.496;2023-03-03T03:17:53;102631.53;;;0.94;100.00
69630;BME280;56857;52.212;5.496;2023-03-03T03:20:18;102632.53;;;0.91;100.00
69630;BME280;56857;52.212;5.496;2023-03-03T03:22:44;102633.44;;;0.90;100.00
69630;BME280;56857;52.212;5.496;2023-03-03T03:25:09;102627.25;;;0.93;100.00
69630;BME280;56857;52.212;5.496;2023-03-03T03:27:35;102629.78;;;0.95;100.00
69630;BME280;56857;52.212;5.496;2023-03-03T03:30:01;102624.38;;;0.99;100.00
69630;BME280;56857;52.212;5.496;2023-03-03T03:32:26;102625.19;;;1.01;100.00
69630;BME280;56857;52.212;5.496;2023-03-03T03:34:52;102633.25;;;0.95;100.00
69630;BME280;56857;52.212;5.496;2023-03-03T03:37:17;102621.22;;;0.91;100.00
69630;BME280;56857;52.212;5.496;2023-03-03T03:39:43;102630.81;;;0.90;100.00
69630;BME280;56857;52.212;5.496;2023-03-03T03:42:08;102631.66;;;0.91;100.00
69630;BME280;56857;52.212;5.496;2023-03-03T03:44:37;102637.75;;;0.91;100.00
69630;BME280;56857;52.212;5.496;2023-03-03T03:47:02;102649.91;;;0.92;100.00
69630;BME280;56857;52.212;5.496;2023-03-03T03:49:27;102642.78;;;0.96;100.00
69630;BME280;56857;52.212;5.496;2023-03-03T03:51:53;102642.78;;;0.96;100.00
69630;BME280;56857;52.212;5.496;2023-03-03T03:54:18;102647.75;;;1.02;100.00
69630;BME280;56857;52.212;5.496;2023-03-03T03:56:44;102657.88;;;1.10;100.00
69630;BME280;56857;52.212;5.496;2023-03-03T03:59:09;102654.50;;;1.08;100.00
69630;BME280;56857;52.212;5.496;2023-03-03T04:01:35;102648.44;;;1.07;100.00
69630;BME280;56857;52.212;5.496;2023-03-03T04:04:00;102652.59;;;1.11;100.00
69630;BME280;56857;52.212;5.496;2023-03-03T04:06:26;102656.13;;;1.10;100.00
69630;BME280;56857;52.212;5.496;2023-03-03T04:08:52;102658.75;;;1.10;100.00
69630;BME280;56857;52.212;5.496;2023-03-03T04:11:17;102656.13;;;1.10;100.00
69630;BME280;56857;52.212;5.496;2023-03-03T04:13:42;102655.25;;;1.10;100.00
69630;BME280;56857;52.212;5.496;2023-03-03T04:16:07;102654.28;;;1.12;100.00
69630;BME280;56857;52.212;5.496;2023-03-03T04:18:33;102652.53;;;1.13;100.00
69630;BME280;56857;52.212;5.496;2023-03-03T04:20:58;102656.91;;;1.12;100.00
69630;BME280;56857;52.212;5.496;2023-03-03T04:23:25;102655.34;;;1.08;100.00
69630;BME280;56857;52.212;5.496;2023-03-03T04:25:50;102651.09;;;1.06;100.00
69630;BME280;56857;52.212;5.496;2023-03-03T04:28:16;102650.25;;;1.05;100.00
69630;BME280;56857;52.212;5.496;2023-03-03T04:30:41;102645.06;;;1.04;100.00
69630;BME280;56857;52.212;5.496;2023-03-03T04:33:08;102655.59;;;1.02;100.00
69630;BME280;56857;52.212;5.496;2023-03-03T04:35:33;102648.69;;;1.01;100.00
69630;BME280;56857;52.212;5.496;2023-03-03T04:37:59;102653.56;;;1.09;100.00
69630;BME280;56857;52.212;5.496;2023-03-03T04:40:24;102652.84;;;1.05;100.00
69630;BME280;56857;52.212;5.496;2023-03-03T04:42:49;102653.66;;;1.07;100.00
69630;BME280;56857;52.212;5.496;2023-03-03T04:45:15;102656.19;;;1.09;100.00
69630;BME280;56857;52.212;5.496;2023-03-03T04:47:40;102660.59;;;1.07;100.00
69630;BME280;56857;52.212;5.496;2023-03-03T04:50:06;102656.19;;;1.09;100.00
69630;BME280;56857;52.212;5.496;2023-03-03T04:52:33;102656.25;;;1.07;100.00
69630;BME280;56857;52.212;5.496;2023-03-03T04:54:58;102657.94;;;1.08;100.00
69630;BME280;56857;52.212;5.496;2023-03-03T04:57:23;102656.13;;;1.10;100.00
69630;BME280;56857;52.212;5.496;2023-03-03T04:59:49;102658.78;;;1.09;100.00
69630;BME280;56857;52.212;5.496;2023-03-03T05:02:15;102660.56;;;1.08;100.00
69630;BME280;56857;52.212;5.496;2023-03-03T05:04:40;102653.44;;;1.12;100.00
69630;BME280;56857;52.212;5.496;2023-03-03T05:07:06;102651.69;;;1.12;100.00
69630;BME280;56857;52.212;5.496;2023-03-03T05:09:31;102653.44;;;1.12;100.00
69630;BME280;56857;52.212;5.496;2023-03-03T05:11:56;102648.00;;;1.16;100.00
69630;BME280;56857;52.212;5.496;2023-03-03T05:14:22;102646.41;;;1.14;100.00
69630;BME280;56857;52.212;5.496;2023-03-03T05:16:47;102656.72;;;1.17;100.00
69630;BME280;56857;52.212;5.496;2023-03-03T05:19:13;102654.75;;;1.22;100.00
69630;BME280;56857;52.212;5.496;2023-03-03T05:21:38;102650.25;;;1.26;100.00
69630;BME280;56857;52.212;5.496;2023-03-03T05:24:04;102646.66;;;1.28;100.00
69630;BME280;56857;52.212;5.496;2023-03-03T05:26:29;102649.81;;;1.36;100.00
69630;BME280;56857;52.212;5.496;2023-03-03T05:28:54;102647.91;;;1.40;100.00
69630;BME280;56857;52.212;5.496;2023-03-03T05:31:20;102647.91;;;1.40;100.00
69630;BME280;56857;52.212;5.496;2023-03-03T05:33:45;102649.69;;;1.39;100.00
69630;BME280;56857;52.212;5.496;2023-03-03T05:36:10;102643.53;;;1.41;100.00
69630;BME280;56857;52.212;5.496;2023-03-03T05:38:36;102652.16;;;1.43;100.00
69630;BME280;56857;52.212;5.496;2023-03-03T05:41:01;102655.53;;;1.45;100.00
69630;BME280;56857;52.212;5.496;2023-03-03T05:43:26;102649.28;;;1.49;100.00
69630;BME280;56857;52.212;5.496;2023-03-03T05:45:55;102647.53;;;1.49;100.00
69630;BME280;56857;52.212;5.496;2023-03-03T05:48:21;102653.50;;;1.51;100.00
69630;BME280;56857;52.212;5.496;2023-03-03T05:50:46;102658.59;;;1.54;100.00
69630;BME280;56857;52.212;5.496;2023-03-03T05:53:11;102654.03;;;1.59;100.00
69630;BME280;56857;52.212;5.496;2023-03-03T05:55:37;102657.38;;;1.63;100.00
69630;BME280;56857;52.212;5.496;2023-03-03T05:58:02;102656.47;;;1.64;100.00
69630;BME280;56857;52.212;5.496;2023-03-03T06:00:27;102658.94;;;1.67;100.00
69630;BME280;56857;52.212;5.496;2023-03-03T06:02:53;102652.94;;;1.65;100.00
69630;BME280;56857;52.212;5.496;2023-03-03T06:05:19;102662.28;;;1.71;100.00
69630;BME280;56857;52.212;5.496;2023-03-03T06:07:44;102655.69;;;1.62;100.00
69630;BME280;56857;52.212;5.496;2023-03-03T06:10:10;102657.44;;;1.61;100.00
69630;BME280;56857;52.212;5.496;2023-03-03T06:12:35;102661.63;;;1.66;100.00
69630;BME280;56857;52.212;5.496;2023-03-03T06:15:00;102658.75;;;1.72;100.00
69630;BME280;56857;52.212;5.496;2023-03-03T06:17:26;102659.41;;;1.77;100.00
69630;BME280;56857;52.212;5.496;2023-03-03T06:19:51;102667.38;;;1.74;100.00
69630;BME280;56857;52.212;5.496;2023-03-03T06:22:16;102664.75;;;1.74;100.00
69630;BME280;56857;52.212;5.496;2023-03-03T06:24:42;102668.41;;;1.70;100.00
69630;BME280;56857;52.212;5.496;2023-03-03T06:27:08;102670.16;;;1.69;100.00
69630;BME280;56857;52.212;5.496;2023-03-03T06:29:33;102677.03;;;1.72;100.00
69630;BME280;56857;52.212;5.496;2023-03-03T06:32:00;102675.22;;;1.74;100.00
69630;BME280;56857;52.212;5.496;2023-03-03T06:34:25;102669.84;;;1.77;100.00
69630;BME280;56857;52.212;5.496;2023-03-03T06:36:51;102683.56;;;1.82;100.00
69630;BME280;56857;52.212;5.496;2023-03-03T06:39:18;102684.34;;;1.84;100.00
69630;BME280;56857;52.212;5.496;2023-03-03T06:41:44;102685.28;;;1.83;100.00
69630;BME280;56857;52.212;5.496;2023-03-03T06:44:09;102678.41;;;1.80;100.00
69630;BME280;56857;52.212;5.496;2023-03-03T06:46:35;102681.91;;;1.79;100.00
69630;BME280;56857;52.212;5.496;2023-03-03T06:49:00;102693.16;;;1.81;100.00
69630;BME280;56857;52.212;5.496;2023-03-03T06:51:30;102686.13;;;1.83;100.00
69630;BME280;56857;52.212;5.496;2023-03-03T06:53:57;102692.19;;;1.84;100.00
69630;BME280;56857;52.212;5.496;2023-03-03T06:56:26;102696.38;;;1.88;100.00
69630;BME280;56857;52.212;5.496;2023-03-03T06:58:59;102698.97;;;1.88;100.00
69630;BME280;56857;52.212;5.496;2023-03-03T07:01:26;102704.91;;;1.92;100.00
69630;BME280;56857;52.212;5.496;2023-03-03T07:03:55;102701.41;;;1.93;100.00
69630;BME280;56857;52.212;5.496;2023-03-03T07:06:24;102704.66;;;1.98;100.00
69630;BME280;56857;52.212;5.496;2023-03-03T07:08:51;102704.47;;;2.02;100.00
69630;BME280;56857;52.212;5.496;2023-03-03T07:11:20;102704.47;;;2.02;100.00
69630;BME280;56857;52.212;5.496;2023-03-03T07:13:51;102711.16;;;2.08;100.00
69630;BME280;56857;52.212;5.496;2023-03-03T07:16:18;102723.06;;;2.15;100.00
69630;BME280;56857;52.212;5.496;2023-03-03T07:21:24;102715.53;;;2.28;100.00
69630;BME280;56857;52.212;5.496;2023-03-03T07:23:52;102717.91;;;2.32;100.00
69630;BME280;56857;52.212;5.496;2023-03-03T07:26:20;102721.75;;;2.25;100.00
69630;BME280;56857;52.212;5.496;2023-03-03T07:29:18;102725.47;;;2.20;100.00
69630;BME280;56857;52.212;5.496;2023-03-03T07:31:45;102722.09;;;2.18;100.00
69630;BME280;56857;52.212;5.496;2023-03-03T07:34:37;102729.88;;;2.19;100.00
69630;BME280;56857;52.212;5.496;2023-03-03T07:37:09;102737.66;;;2.21;100.00
69630;BME280;56857;52.212;5.496;2023-03-03T07:39:41;102734.91;;;2.24;100.00
69630;BME280;56857;52.212;5.496;2023-03-03T07:42:34;102737.44;;;2.25;100.00
69630;BME280;56857;52.212;5.496;2023-03-03T07:47:45;102742.41;;;2.31;100.00
69630;BME280;56857;52.212;5.496;2023-03-03T07:52:55;102748.97;;;2.21;100.00
69630;BME280;56857;52.212;5.496;2023-03-03T07:55:35;102754.63;;;2.31;100.00
69630;BME280;56857;52.212;5.496;2023-03-03T08:03:18;102753.53;;;2.37;100.00
69630;BME280;56857;52.212;5.496;2023-03-03T08:05:48;102762.97;;;2.39;100.00
69630;BME280;56857;52.212;5.496;2023-03-03T08:08:34;102759.25;;;2.45;100.00
69630;BME280;56857;52.212;5.496;2023-03-03T08:11:00;102763.34;;;2.50;100.00
69630;BME280;56857;52.212;5.496;2023-03-03T08:16:46;102763.22;;;2.53;100.00
69630;BME280;56857;52.212;5.496;2023-03-03T08:18:49;102779.72;;;2.55;100.00
69630;BME280;56857;52.212;5.496;2023-03-03T08:21:18;102778.56;;;2.61;100.00
69630;BME280;56857;52.212;5.496;2023-03-03T08:23:48;102782.63;;;2.68;100.00
69630;BME280;56857;52.212;5.496;2023-03-03T08:26:13;102779.78;;;2.73;100.00
69630;BME280;56857;52.212;5.496;2023-03-03T08:28:39;102791.03;;;2.75;100.00
69630;BME280;56857;52.212;5.496;2023-03-03T08:31:07;102790.91;;;2.78;100.00
69630;BME280;56857;52.212;5.496;2023-03-03T08:33:34;102786.56;;;2.77;100.00
69630;BME280;56857;52.212;5.496;2023-03-03T08:36:04;102787.22;;;2.82;100.00
69630;BME280;56857;52.212;5.496;2023-03-03T08:38:30;102786.22;;;2.85;100.00
69630;BME280;56857;52.212;5.496;2023-03-03T08:40:58;102789.69;;;2.85;100.00
69630;BME280;56857;52.212;5.496;2023-03-03T08:43:23;102778.97;;;2.90;100.00
69630;BME280;56857;52.212;5.496;2023-03-03T08:45:51;102790.19;;;2.93;100.00
69630;BME280;56857;52.212;5.496;2023-03-03T08:48:18;102785.78;;;2.94;100.00
69630;BME280;56857;52.212;5.496;2023-03-03T08:50:45;102787.47;;;2.95;100.00
69630;BME280;56857;52.212;5.496;2023-03-03T08:53:11;102786.41;;;2.99;100.00
69630;BME280;56857;52.212;5.496;2023-03-03T08:55:38;102787.19;;;3.01;100.00
69630;BME280;56857;52.212;5.496;2023-03-03T08:58:04;102788.00;;;3.03;100.00
69630;BME280;56857;52.212;5.496;2023-03-03T09:00:31;102789.44;;;3.09;100.00
69630;BME280;56857;52.212;5.496;2023-03-03T09:02:59;102784.84;;;3.14;100.00
69630;BME280;56857;52.212;5.496;2023-03-03T09:05:26;102794.94;;;3.21;100.00
69630;BME280;56857;52.212;5.496;2023-03-03T09:07:53;102791.28;;;3.25;100.00
69630;BME280;56857;52.212;5.496;2023-03-03T09:10:24;102794.50;;;3.31;100.00
69630;BME280;56857;52.212;5.496;2023-03-03T09:12:50;102791.69;;;3.35;100.00
69630;BME280;56857;52.212;5.496;2023-03-03T09:15:29;102790.69;;;3.38;100.00
69630;BME280;56857;52.212;5.496;2023-03-03T09:17:59;102799.16;;;3.43;100.00
69630;BME280;56857;52.212;5.496;2023-03-03T09:20:38;102798.16;;;3.45;100.00
69630;BME280;56857;52.212;5.496;2023-03-03T09:23:36;102789.47;;;3.45;100.00
69630;BME280;56857;52.212;5.496;2023-03-03T09:28:50;102793.75;;;3.46;100.00
69630;BME280;56857;52.212;5.496;2023-03-03T09:31:30;102787.63;;;3.47;100.00
69630;BME280;56857;52.212;5.496;2023-03-03T09:34:00;102783.91;;;3.51;100.00
69630;BME280;56857;52.212;5.496;2023-03-03T09:36:35;102783.66;;;3.56;100.00
69630;BME280;56857;52.212;5.496;2023-03-03T09:39:21;102785.94;;;3.63;100.00
69630;BME280;56857;52.212;5.496;2023-03-03T09:48:05;102789.28;;;4.00;100.00
69630;BME280;56857;52.212;5.496;2023-03-03T09:50:45;102796.16;;;4.20;100.00
69630;BME280;56857;52.212;5.496;2023-03-03T09:58:50;102806.06;;;4.48;100.00
69630;BME280;56857;52.212;5.496;2023-03-03T10:01:38;102794.81;;;4.62;100.00
69630;BME280;56857;52.212;5.496;2023-03-03T10:07:18;102798.81;;;5.01;100.00
69630;BME280;56857;52.212;5.496;2023-03-03T10:10:05;102792.03;;;5.13;100.00
69630;BME280;56857;52.212;5.496;2023-03-03T10:12:57;102801.34;;;5.18;100.00
69630;BME280;56857;52.212;5.496;2023-03-03T10:20:46;102793.53;;;5.17;100.00
69630;BME280;56857;52.212;5.496;2023-03-03T10:26:05;102797.88;;;5.18;100.00
69630;BME280;56857;52.212;5.496;2023-03-03T10:28:49;102800.84;;;5.27;100.00
69630;BME280;56857;52.212;5.496;2023-03-03T10:34:25;102799.09;;;5.58;100.00
69630;BME280;56857;52.212;5.496;2023-03-03T10:39:35;102791.69;;;5.65;100.00
69630;BME280;56857;52.212;5.496;2023-03-03T10:42:09;102794.94;;;5.84;100.00
69630;BME280;56857;52.212;5.496;2023-03-03T10:50:11;102795.66;;;6.16;100.00
69630;BME280;56857;52.212;5.496;2023-03-03T11:00:40;102795.66;;;6.16;100.00
69630;BME280;56857;52.212;5.496;2023-03-03T11:06:25;102788.06;;;6.40;100.00
69630;BME280;56857;52.212;5.496;2023-03-03T11:09:11;102793.63;;;6.50;100.00
69630;BME280;56857;52.212;5.496;2023-03-03T11:14:31;102787.09;;;6.56;100.00
69630;BME280;56857;52.212;5.496;2023-03-03T11:17:25;102786.19;;;6.57;100.00
69630;BME280;56857;52.212;5.496;2023-03-03T11:20:02;102783.16;;;6.63;100.00
69630;BME280;56857;52.212;5.496;2023-03-03T11:33:59;102769.13;;;7.83;100.00
69630;BME280;56857;52.212;5.496;2023-03-03T11:36:22;102772.81;;;7.81;100.00
69630;BME280;56857;52.212;5.496;2023-03-03T11:39:10;102774.41;;;7.83;100.00
69630;BME280;56857;52.212;5.496;2023-03-03T11:44:24;102770.81;;;7.84;100.00
69630;BME280;56857;52.212;5.496;2023-03-03T11:47:02;102769.34;;;7.80;100.00
69630;BME280;56857;52.212;5.496;2023-03-03T11:55:10;102762.88;;;7.72;100.00
69630;BME280;56857;52.212;5.496;2023-03-03T11:58:16;102761.22;;;7.83;100.00
69630;BME280;56857;52.212;5.496;2023-03-03T12:00:59;102767.75;;;7.90;100.00
69630;BME280;56857;52.212;5.496;2023-03-03T12:03:33;102752.75;;;7.91;100.00
69630;BME280;56857;52.212;5.496;2023-03-03T12:11:26;102749.91;;;8.07;100.00
69630;BME280;56857;52.212;5.496;2023-03-03T12:14:16;102753.41;;;8.20;100.00
69630;BME280;56857;52.212;5.496;2023-03-03T12:17:03;102753.63;;;8.30;100.00
69630;BME280;56857;52.212;5.496;2023-03-03T12:22:30;102745.22;;;8.62;100.00
69630;BME280;56857;52.212;5.496;2023-03-03T12:36:01;102738.88;;;8.64;100.00
69630;BME280;56857;52.212;5.496;2023-03-03T12:38:32;102730.06;;;8.40;100.00
69630;BME280;56857;52.212;5.496;2023-03-03T12:41:26;102725.28;;;8.19;100.00
69630;BME280;56857;52.212;5.496;2023-03-03T12:46:57;102740.28;;;7.55;100.00
69630;BME280;56857;52.212;5.496;2023-03-03T12:49:45;102732.81;;;7.87;100.00
69630;BME280;56857;52.212;5.496;2023-03-03T12:55:10;102723.25;;;9.09;100.00
69630;BME280;56857;52.212;5.496;2023-03-03T13:11:05;102720.78;;;8.71;100.00
69630;BME280;56857;52.212;5.496;2023-03-03T13:16:28;102717.81;;;8.00;100.00
69630;BME280;56857;52.212;5.496;2023-03-03T13:21:44;102721.28;;;7.62;100.00
69630;BME280;56857;52.212;5.496;2023-03-03T13:24:32;102716.53;;;7.55;100.00
69630;BME280;56857;52.212;5.496;2023-03-03T13:27:12;102721.81;;;7.55;100.00
69630;BME280;56857;52.212;5.496;2023-03-03T13:29:47;102715.34;;;7.46;100.00
69630;BME280;56857;52.212;5.496;2023-03-03T13:35:46;102724.59;;;7.26;100.00
69630;BME280;56857;52.212;5.496;2023-03-03T13:38:32;102717.69;;;7.11;100.00
69630;BME280;56857;52.212;5.496;2023-03-03T13:41:16;102717.44;;;7.01;100.00
69630;BME280;56857;52.212;5.496;2023-03-03T13:44:00;102715.44;;;7.05;100.00
69630;BME280;56857;52.212;5.496;2023-03-03T13:52:19;102713.13;;;7.00;100.00
69630;BME280;56857;52.212;5.496;2023-03-03T14:00:54;102710.03;;;6.93;100.00
69630;BME280;56857;52.212;5.496;2023-03-03T14:03:45;102709.09;;;6.94;100.00
69630;BME280;56857;52.212;5.496;2023-03-03T14:06:25;102706.66;;;6.91;100.00
69630;BME280;56857;52.212;5.496;2023-03-03T14:09:33;102707.69;;;6.89;100.00
69630;BME280;56857;52.212;5.496;2023-03-03T14:17:43;102703.72;;;6.96;100.00
69630;BME280;56857;52.212;5.496;2023-03-03T14:20:54;102704.47;;;6.98;100.00
69630;BME280;56857;52.212;5.496;2023-03-03T14:23:27;102698.56;;;6.94;100.00
69630;BME280;56857;52.212;5.496;2023-03-03T14:26:06;102702.44;;;6.89;100.00
69630;BME280;56857;52.212;5.496;2023-03-03T14:28:46;102693.75;;;6.87;100.00
69630;BME280;56857;52.212;5.496;2023-03-03T14:31:24;102693.97;;;6.84;100.00
69630;BME280;56857;52.212;5.496;2023-03-03T14:37:24;102684.53;;;6.94;100.00
69630;BME280;56857;52.212;5.496;2023-03-03T14:40:22;102688.72;;;6.96;100.00
69630;BME280;56857;52.212;5.496;2023-03-03T14:42:56;102688.84;;;6.95;100.00
69630;BME280;56857;52.212;5.496;2023-03-03T14:45:39;102683.66;;;6.93;100.00
69630;BME280;56857;52.212;5.496;2023-03-03T14:48:28;102684.31;;;6.97;100.00
69630;BME280;56857;52.212;5.496;2023-03-03T14:51:26;102680.53;;;7.01;100.00
69630;BME280;56857;52.212;5.496;2023-03-03T14:53:56;102683.38;;;6.98;100.00
69630;BME280;56857;52.212;5.496;2023-03-03T14:56:34;102668.78;;;6.92;100.00
69630;BME280;56857;52.212;5.496;2023-03-03T14:59:27;102678.63;;;6.90;100.00
69630;BME280;56857;52.212;5.496;2023-03-03T15:04:47;102671.63;;;6.89;100.00
69630;BME280;56857;52.212;5.496;2023-03-03T15:07:34;102672.97;;;6.82;100.00
69630;BME280;56857;52.212;5.496;2023-03-03T15:10:00;102674.88;;;6.80;100.00
69630;BME280;56857;52.212;5.496;2023-03-03T15:12:42;102670.94;;;6.73;100.00
69630;BME280;56857;52.212;5.496;2023-03-03T15:15:21;102671.25;;;6.68;100.00
69630;BME280;56857;52.212;5.496;2023-03-03T15:17:57;102669.75;;;6.64;100.00
69630;BME280;56857;52.212;5.496;2023-03-03T15:20:44;102667.22;;;6.63;100.00
69630;BME280;56857;52.212;5.496;2023-03-03T15:23:44;102666.47;;;6.61;100.00
69630;BME280;56857;52.212;5.496;2023-03-03T15:29:07;102664.97;;;6.57;100.00
69630;BME280;56857;52.212;5.496;2023-03-03T15:31:51;102660.84;;;6.53;100.00
69630;BME280;56857;52.212;5.496;2023-03-03T15:34:43;102658.09;;;6.54;100.00
69630;BME280;56857;52.212;5.496;2023-03-03T15:37:41;102652.84;;;6.54;100.00
69630;BME280;56857;52.212;5.496;2023-03-03T15:45:54;102653.16;;;6.49;100.00
69630;BME280;56857;52.212;5.496;2023-03-03T15:54:13;102648.75;;;6.36;100.00
69630;BME280;56857;52.212;5.496;2023-03-03T15:56:53;102652.31;;;6.35;100.00
69630;BME280;56857;52.212;5.496;2023-03-03T15:59:57;102655.44;;;6.27;100.00
69630;BME280;56857;52.212;5.496;2023-03-03T16:02:45;102654.97;;;6.20;100.00
69630;BME280;56857;52.212;5.496;2023-03-03T16:05:33;102647.44;;;6.14;100.00
69630;BME280;56857;52.212;5.496;2023-03-03T16:08:22;102646.06;;;6.09;100.00
69630;BME280;56857;52.212;5.496;2023-03-03T16:11:03;102653.22;;;6.07;100.00
69630;BME280;56857;52.212;5.496;2023-03-03T16:13:59;102648.78;;;6.07;100.00
69630;BME280;56857;52.212;5.496;2023-03-03T16:16:36;102650.28;;;6.11;100.00
69630;BME280;56857;52.212;5.496;2023-03-03T16:19:37;102655.53;;;6.11;100.00
69630;BME280;56857;52.212;5.496;2023-03-03T16:24:54;102653.66;;;6.13;100.00